Anna R — WDC6899 — position and weather

sailwx.info

Track history (hours):
 
Tides and Currents Weather Stations Pressure Air Temp Water Temp Dewpoint Dewpoint Depression Visibility Wind Speed Wind Dir Waves Ship Positions

Anna R

Owner: Boston LIne & Service Co., Inc., Boston, MA. More information available from US FCC via Universal Licensing System and Coast Guard Vessel Documentation Center.

Last reported at 2017-Oct-20 20:22 UTC. Time now 2017-Oct-20 21:20 UTC.
Position N 42°20' W 070°57'.

Length 13 m; draft 2 m.

Type: Port tender. MMSI: 367062890.

Date/timePositionNaut miles runAvg speedWind from/ knotsBaromVisibWave heightAir tempDewpointWater temp
2017-Oct-20 20:22N 42°20' W 070°57'514.2
2017-Oct-20 20:00N 42°23' W 070°51'8 0.2
2017-Oct-18 16:58N 42°21' W 071°02'3 5.8
2017-Oct-18 16:30N 42°23' W 071°03'1 1.0
2017-Oct-18 16:00N 42°23' W 071°04'0 0.0
2017-Oct-18 15:30N 42°23' W 071°04'0 0.0
2017-Oct-18 15:00N 42°23' W 071°04'3 3.1
2017-Oct-18 14:00N 42°21' W 071°02'0 0.0
2017-Oct-17 18:02N 42°21' W 071°02'0 5.7
2017-Oct-17 18:00N 42°21' W 071°02'3 6.2
2017-Oct-17 17:29N 42°23' W 071°04'0 0.0
2017-Oct-17 17:01N 42°23' W 071°04'0 0.0
2017-Oct-17 16:30N 42°23' W 071°04'0 0.0
2017-Oct-17 16:00N 42°23' W 071°04'0 0.1
2017-Oct-17 15:30N 42°23' W 071°04'0 0.0
2017-Oct-17 15:00N 42°23' W 071°04'0 0.7
2017-Oct-17 14:30N 42°23' W 071°03'2 4.0
2017-Oct-17 14:00N 42°21' W 071°02'1 0.0
2017-Oct-16 17:10N 42°21' W 071°02'1 4.6
2017-Oct-16 17:00N 42°21' W 071°02'2 3.5
2017-Oct-16 16:30N 42°20' W 070°59'2 4.1
2017-Oct-16 16:00N 42°22' W 071°02'1 1.3
2017-Oct-16 15:12N 42°21' W 071°02'0 0.0
2017-Oct-16 14:56N 42°21' W 071°02'0 0.0
2017-Oct-16 14:00N 42°21' W 071°02'0 0.0
2017-Oct-16 11:45N 42°21' W 071°02'0 0.0
2017-Oct-16 11:30N 42°21' W 071°02'0 0.0
2017-Oct-16 11:00N 42°21' W 071°02'0 0.0
2017-Oct-16 10:27N 42°21' W 071°02'0 0.0
2017-Oct-16 09:59N 42°21' W 071°02'0 0.0
2017-Oct-16 09:30N 42°21' W 071°02'0 0.0
2017-Oct-16 06:42N 42°21' W 071°02'0 0.0
2017-Oct-16 06:22N 42°21' W 071°02'1 3.3
2017-Oct-16 06:00N 42°21' W 071°00'2 3.4
2017-Oct-16 05:30N 42°20' W 070°58'0 0.0
2017-Oct-16 05:00N 42°20' W 070°58'3 4.4
2017-Oct-16 04:21N 42°21' W 071°02'0 0.0
2017-Oct-16 03:59N 42°21' W 071°02'0 0.0
2017-Oct-15 03:33N 42°21' W 071°02'0 1.9
2017-Oct-15 03:30N 42°21' W 071°02'3 6.3
2017-Oct-15 03:00N 42°20' W 070°58'0 0.0
2017-Oct-15 02:30N 42°20' W 070°58'0 0.0
2017-Oct-15 02:00N 42°20' W 070°58'0 0.1
2017-Oct-15 01:30N 42°20' W 070°58'3 5.3
2017-Oct-15 01:00N 42°21' W 071°01'1 0.1
2017-Oct-14 13:53N 42°21' W 071°02'1 3.5
2017-Oct-14 13:30N 42°22' W 071°03'2 2.6
2017-Oct-14 12:53N 42°23' W 071°01'0 1.1
2017-Oct-14 12:30N 42°24' W 071°01'0 0.7
2017-Oct-14 12:00N 42°23' W 071°01'2 4.5
2017-Oct-14 11:30N 42°21' W 071°03'  
2017-Oct-11 19:27N 42°21' W 071°02'3 6.6
2017-Oct-11 19:00N 42°23' W 071°04'0 0.0
2017-Oct-11 18:30N 42°23' W 071°04'  
Track history (hours):
 
Tides and Currents Weather Stations Pressure Air Temp Water Temp Dewpoint Dewpoint Depression Visibility Wind Speed Wind Dir Waves Ship Positions

Anna R

Owner: Boston LIne & Service Co., Inc., Boston, MA. More information available from US FCC via Universal Licensing System and Coast Guard Vessel Documentation Center.

Last reported at 2017-Oct-20 20:22 UTC. Time now 2017-Oct-20 21:20 UTC.
Position N 42°20' W 070°57'.

Length 13 m; draft 2 m.

Type: Port tender. MMSI: 367062890.

Date/timePositionNaut miles runAvg speedWind from/ knotsBaromVisibWave heightAir tempDewpointWater temp
2017-Oct-20 20:22N 42°20' W 070°57'514.2
2017-Oct-20 20:00N 42°23' W 070°51'8 0.2
2017-Oct-18 16:58N 42°21' W 071°02'3 5.8
2017-Oct-18 16:30N 42°23' W 071°03'1 1.0
2017-Oct-18 16:00N 42°23' W 071°04'0 0.0
2017-Oct-18 15:30N 42°23' W 071°04'0 0.0
2017-Oct-18 15:00N 42°23' W 071°04'3 3.1
2017-Oct-18 14:00N 42°21' W 071°02'0 0.0
2017-Oct-17 18:02N 42°21' W 071°02'0 5.7
2017-Oct-17 18:00N 42°21' W 071°02'3 6.2
2017-Oct-17 17:29N 42°23' W 071°04'0 0.0
2017-Oct-17 17:01N 42°23' W 071°04'0 0.0
2017-Oct-17 16:30N 42°23' W 071°04'0 0.0
2017-Oct-17 16:00N 42°23' W 071°04'0 0.1
2017-Oct-17 15:30N 42°23' W 071°04'0 0.0
2017-Oct-17 15:00N 42°23' W 071°04'0 0.7
2017-Oct-17 14:30N 42°23' W 071°03'2 4.0
2017-Oct-17 14:00N 42°21' W 071°02'1 0.0
2017-Oct-16 17:10N 42°21' W 071°02'1 4.6
2017-Oct-16 17:00N 42°21' W 071°02'2 3.5
2017-Oct-16 16:30N 42°20' W 070°59'2 4.1
2017-Oct-16 16:00N 42°22' W 071°02'1 1.3
2017-Oct-16 15:12N 42°21' W 071°02'0 0.0
2017-Oct-16 14:56N 42°21' W 071°02'0 0.0
2017-Oct-16 14:00N 42°21' W 071°02'0 0.0
2017-Oct-16 11:45N 42°21' W 071°02'0 0.0
2017-Oct-16 11:30N 42°21' W 071°02'0 0.0
2017-Oct-16 11:00N 42°21' W 071°02'0 0.0
2017-Oct-16 10:27N 42°21' W 071°02'0 0.0
2017-Oct-16 09:59N 42°21' W 071°02'0 0.0
2017-Oct-16 09:30N 42°21' W 071°02'0 0.0
2017-Oct-16 06:42N 42°21' W 071°02'0 0.0
2017-Oct-16 06:22N 42°21' W 071°02'1 3.3
2017-Oct-16 06:00N 42°21' W 071°00'2 3.4
2017-Oct-16 05:30N 42°20' W 070°58'0 0.0
2017-Oct-16 05:00N 42°20' W 070°58'3 4.4
2017-Oct-16 04:21N 42°21' W 071°02'0 0.0
2017-Oct-16 03:59N 42°21' W 071°02'0 0.0
2017-Oct-15 03:33N 42°21' W 071°02'0 1.9
2017-Oct-15 03:30N 42°21' W 071°02'3 6.3
2017-Oct-15 03:00N 42°20' W 070°58'0 0.0
2017-Oct-15 02:30N 42°20' W 070°58'0 0.0
2017-Oct-15 02:00N 42°20' W 070°58'0 0.1
2017-Oct-15 01:30N 42°20' W 070°58'3 5.3
2017-Oct-15 01:00N 42°21' W 071°01'1 0.1
2017-Oct-14 13:53N 42°21' W 071°02'1 3.5
2017-Oct-14 13:30N 42°22' W 071°03'2 2.6
2017-Oct-14 12:53N 42°23' W 071°01'0 1.1
2017-Oct-14 12:30N 42°24' W 071°01'0 0.7
2017-Oct-14 12:00N 42°23' W 071°01'2 4.5
2017-Oct-14 11:30N 42°21' W 071°03'  
2017-Oct-11 19:27N 42°21' W 071°02'3 6.6
2017-Oct-11 19:00N 42°23' W 071°04'0 0.0
2017-Oct-11 18:30N 42°23' W 071°04'  

Dump ship's entire track history